sensor_id;sensor_type;location;lat;lon;timestamp;pressure;altitude;pressure_sealevel;temperature;humidity
73453;BME280;61687;56.232;43.854;2023-07-31T00:00:34;99477.38;;;16.96;79.28
73453;BME280;61687;56.232;43.854;2023-07-31T00:03:00;99481.34;;;16.95;79.30
73453;BME280;61687;56.232;43.854;2023-07-31T00:05:26;99471.81;;;16.96;79.09
73453;BME280;61687;56.232;43.854;2023-07-31T00:07:52;99475.34;;;16.96;79.01
73453;BME280;61687;56.232;43.854;2023-07-31T00:10:19;99478.53;;;16.98;78.99
73453;BME280;61687;56.232;43.854;2023-07-31T00:12:45;99482.41;;;17.01;78.86
73453;BME280;61687;56.232;43.854;2023-07-31T00:15:11;99478.09;;;17.00;78.75
73453;BME280;61687;56.232;43.854;2023-07-31T00:17:38;99480.84;;;17.00;78.57
73453;BME280;61687;56.232;43.854;2023-07-31T00:20:04;99480.22;;;16.92;78.83
73453;BME280;61687;56.232;43.854;2023-07-31T00:22:30;99481.41;;;16.91;78.79
73453;BME280;61687;56.232;43.854;2023-07-31T00:24:56;99486.09;;;16.94;78.62
73453;BME280;61687;56.232;43.854;2023-07-31T00:27:23;99477.53;;;16.88;78.65
73453;BME280;61687;56.232;43.854;2023-07-31T00:29:50;99481.16;;;16.85;78.62
73453;BME280;61687;56.232;43.854;2023-07-31T00:32:15;99490.31;;;16.82;78.70
73453;BME280;61687;56.232;43.854;2023-07-31T00:34:41;99491.88;;;16.83;78.87
73453;BME280;61687;56.232;43.854;2023-07-31T00:37:07;99498.97;;;16.84;78.67
73453;BME280;61687;56.232;43.854;2023-07-31T00:39:34;99498.63;;;16.82;78.70
73453;BME280;61687;56.232;43.854;2023-07-31T00:42:01;99504.50;;;16.84;78.58
73453;BME280;61687;56.232;43.854;2023-07-31T00:44:27;99501.31;;;16.86;78.41
73453;BME280;61687;56.232;43.854;2023-07-31T00:46:53;99497.75;;;16.85;78.31
73453;BME280;61687;56.232;43.854;2023-07-31T00:49:20;99501.84;;;16.81;78.26
73453;BME280;61687;56.232;43.854;2023-07-31T00:51:46;99510.81;;;16.85;78.28
73453;BME280;61687;56.232;43.854;2023-07-31T00:54:12;99508.41;;;16.87;78.34
73453;BME280;61687;56.232;43.854;2023-07-31T00:56:40;99507.59;;;16.86;78.07
73453;BME280;61687;56.232;43.854;2023-07-31T00:59:06;99515.56;;;16.84;78.19
73453;BME280;61687;56.232;43.854;2023-07-31T01:01:32;99511.25;;;16.83;77.97
73453;BME280;61687;56.232;43.854;2023-07-31T01:03:58;99515.22;;;16.82;78.22
73453;BME280;61687;56.232;43.854;2023-07-31T01:09:22;99511.69;;;16.82;78.42
73453;BME280;61687;56.232;43.854;2023-07-31T01:11:56;99512.72;;;16.88;78.26
73453;BME280;61687;56.232;43.854;2023-07-31T01:14:23;99513.53;;;16.88;78.11
73453;BME280;61687;56.232;43.854;2023-07-31T01:16:49;99515.41;;;16.92;78.37
73453;BME280;61687;56.232;43.854;2023-07-31T01:19:18;99515.50;;;16.88;78.38
73453;BME280;61687;56.232;43.854;2023-07-31T01:24:59;99517.47;;;16.71;79.04
73453;BME280;61687;56.232;43.854;2023-07-31T01:27:34;99515.75;;;16.77;78.64
73453;BME280;61687;56.232;43.854;2023-07-31T01:30:11;99512.88;;;16.64;79.39
73453;BME280;61687;56.232;43.854;2023-07-31T01:32:42;99516.25;;;16.72;79.08
73453;BME280;61687;56.232;43.854;2023-07-31T01:35:08;99519.28;;;16.78;78.79
73453;BME280;61687;56.232;43.854;2023-07-31T01:37:35;99521.34;;;16.73;79.00
73453;BME280;61687;56.232;43.854;2023-07-31T01:40:01;99526.13;;;16.73;79.24
73453;BME280;61687;56.232;43.854;2023-07-31T01:42:30;99527.75;;;16.70;79.12
73453;BME280;61687;56.232;43.854;2023-07-31T01:44:56;99523.94;;;16.64;79.73
73453;BME280;61687;56.232;43.854;2023-07-31T01:47:22;99523.94;;;16.64;79.63
73453;BME280;61687;56.232;43.854;2023-07-31T01:49:49;99533.78;;;16.65;79.66
73453;BME280;61687;56.232;43.854;2023-07-31T01:52:15;99539.13;;;16.36;80.65
73453;BME280;61687;56.232;43.854;2023-07-31T01:54:41;99537.50;;;16.38;80.64
73453;BME280;61687;56.232;43.854;2023-07-31T01:57:07;99539.34;;;16.45;80.48
73453;BME280;61687;56.232;43.854;2023-07-31T01:59:33;99536.44;;;16.52;80.22
73453;BME280;61687;56.232;43.854;2023-07-31T02:02:00;99534.44;;;16.53;80.05
73453;BME280;61687;56.232;43.854;2023-07-31T02:04:26;99539.72;;;16.64;79.88
73453;BME280;61687;56.232;43.854;2023-07-31T02:06:52;99542.72;;;16.73;79.53
73453;BME280;61687;56.232;43.854;2023-07-31T02:09:19;99546.59;;;16.76;79.38
73453;BME280;61687;56.232;43.854;2023-07-31T02:11:44;99543.56;;;16.70;79.60
73453;BME280;61687;56.232;43.854;2023-07-31T02:14:10;99538.38;;;16.72;79.69
73453;BME280;61687;56.232;43.854;2023-07-31T02:16:36;99541.16;;;16.72;79.69
73453;BME280;61687;56.232;43.854;2023-07-31T02:19:03;99533.91;;;16.78;79.57
73453;BME280;61687;56.232;43.854;2023-07-31T02:21:28;99536.50;;;16.85;79.31
73453;BME280;61687;56.232;43.854;2023-07-31T02:23:54;99532.16;;;16.84;79.15
73453;BME280;61687;56.232;43.854;2023-07-31T02:26:20;99523.38;;;16.90;78.92
73453;BME280;61687;56.232;43.854;2023-07-31T02:28:46;99525.59;;;16.98;78.55
73453;BME280;61687;56.232;43.854;2023-07-31T02:31:12;99527.03;;;17.03;78.44
73453;BME280;61687;56.232;43.854;2023-07-31T02:33:39;99534.47;;;17.06;78.17
73453;BME280;61687;56.232;43.854;2023-07-31T02:36:05;99527.56;;;17.14;78.08
73453;BME280;61687;56.232;43.854;2023-07-31T02:38:31;99529.63;;;17.27;77.93
73453;BME280;61687;56.232;43.854;2023-07-31T02:40:57;99531.47;;;17.34;77.31
73453;BME280;61687;56.232;43.854;2023-07-31T02:43:23;99535.16;;;17.27;77.05
73453;BME280;61687;56.232;43.854;2023-07-31T02:45:53;99532.31;;;17.14;77.70
73453;BME280;61687;56.232;43.854;2023-07-31T02:48:19;99528.59;;;17.21;77.43
73453;BME280;61687;56.232;43.854;2023-07-31T02:50:45;99526.09;;;17.26;77.47
73453;BME280;61687;56.232;43.854;2023-07-31T02:53:11;99530.34;;;17.31;77.06
73453;BME280;61687;56.232;43.854;2023-07-31T02:55:37;99528.25;;;17.35;76.80
73453;BME280;61687;56.232;43.854;2023-07-31T02:58:04;99533.19;;;17.44;76.67
73453;BME280;61687;56.232;43.854;2023-07-31T03:00:30;99532.94;;;17.55;76.21
73453;BME280;61687;56.232;43.854;2023-07-31T03:02:56;99520.78;;;17.65;75.97
73453;BME280;61687;56.232;43.854;2023-07-31T03:05:22;99529.59;;;17.77;75.63
73453;BME280;61687;56.232;43.854;2023-07-31T03:07:48;99523.41;;;17.56;75.68
73453;BME280;61687;56.232;43.854;2023-07-31T03:10:14;99525.72;;;17.57;75.85
73453;BME280;61687;56.232;43.854;2023-07-31T03:12:41;99530.75;;;17.63;76.09
73453;BME280;61687;56.232;43.854;2023-07-31T03:15:07;99534.63;;;17.65;75.74
73453;BME280;61687;56.232;43.854;2023-07-31T03:17:33;99523.72;;;17.74;75.78
73453;BME280;61687;56.232;43.854;2023-07-31T03:20:00;99528.56;;;17.70;76.08
73453;BME280;61687;56.232;43.854;2023-07-31T03:22:25;99534.84;;;17.87;75.88
73453;BME280;61687;56.232;43.854;2023-07-31T03:24:51;99539.25;;;17.85;75.62
73453;BME280;61687;56.232;43.854;2023-07-31T03:27:18;99538.38;;;17.88;75.45
73453;BME280;61687;56.232;43.854;2023-07-31T03:29:44;99540.44;;;18.00;75.33
73453;BME280;61687;56.232;43.854;2023-07-31T03:32:10;99544.16;;;18.10;74.84
73453;BME280;61687;56.232;43.854;2023-07-31T03:34:36;99543.59;;;18.02;74.66
73453;BME280;61687;56.232;43.854;2023-07-31T03:37:02;99540.81;;;17.86;75.02
73453;BME280;61687;56.232;43.854;2023-07-31T03:39:28;99549.34;;;17.62;76.03
73453;BME280;61687;56.232;43.854;2023-07-31T03:41:53;99550.91;;;17.63;76.17
73453;BME280;61687;56.232;43.854;2023-07-31T03:44:19;99546.94;;;17.48;76.80
73453;BME280;61687;56.232;43.854;2023-07-31T03:46:45;99553.16;;;17.68;76.46
73453;BME280;61687;56.232;43.854;2023-07-31T03:49:11;99558.75;;;17.81;76.09
73453;BME280;61687;56.232;43.854;2023-07-31T03:51:37;99549.94;;;17.86;nan
73453;BME280;61687;56.232;43.854;2023-07-31T03:54:03;99556.09;;;17.78;75.59
73453;BME280;61687;56.232;43.854;2023-07-31T03:56:29;99552.25;;;17.88;75.50
73453;BME280;61687;56.232;43.854;2023-07-31T03:58:55;99554.06;;;17.95;75.34
73453;BME280;61687;56.232;43.854;2023-07-31T04:01:21;99556.38;;;18.13;75.30
73453;BME280;61687;56.232;43.854;2023-07-31T04:03:47;99554.59;;;18.06;74.99
73453;BME280;61687;56.232;43.854;2023-07-31T04:06:13;99561.06;;;18.16;74.56
73453;BME280;61687;56.232;43.854;2023-07-31T04:08:39;99554.63;;;18.19;74.46
73453;BME280;61687;56.232;43.854;2023-07-31T04:11:04;99559.50;;;18.15;74.38
73453;BME280;61687;56.232;43.854;2023-07-31T04:13:30;99565.56;;;18.10;74.77
73453;BME280;61687;56.232;43.854;2023-07-31T04:15:56;99567.03;;;17.98;75.05
73453;BME280;61687;56.232;43.854;2023-07-31T04:18:25;99564.38;;;17.94;75.00
73453;BME280;61687;56.232;43.854;2023-07-31T04:20:51;99558.25;;;17.70;75.83
73453;BME280;61687;56.232;43.854;2023-07-31T04:23:17;99571.19;;;17.60;76.88
73453;BME280;61687;56.232;43.854;2023-07-31T04:25:43;99566.97;;;17.85;76.21
73453;BME280;61687;56.232;43.854;2023-07-31T04:28:09;99564.16;;;17.72;76.27
73453;BME280;61687;56.232;43.854;2023-07-31T04:30:35;99567.31;;;17.87;76.28
73453;BME280;61687;56.232;43.854;2023-07-31T04:33:02;99571.09;;;18.10;75.25
73453;BME280;61687;56.232;43.854;2023-07-31T04:35:27;99563.31;;;18.05;75.05
73453;BME280;61687;56.232;43.854;2023-07-31T04:37:53;99575.78;;;18.13;75.09
73453;BME280;61687;56.232;43.854;2023-07-31T04:40:19;99571.38;;;17.99;75.62
73453;BME280;61687;56.232;43.854;2023-07-31T04:42:45;99580.56;;;18.12;74.89
73453;BME280;61687;56.232;43.854;2023-07-31T04:45:11;99582.19;;;18.10;75.30
73453;BME280;61687;56.232;43.854;2023-07-31T04:47:37;99582.31;;;18.06;75.65
73453;BME280;61687;56.232;43.854;2023-07-31T04:50:03;99587.75;;;18.10;75.54
73453;BME280;61687;56.232;43.854;2023-07-31T04:52:29;99580.38;;;18.33;75.01
73453;BME280;61687;56.232;43.854;2023-07-31T04:54:55;99587.91;;;18.19;75.28
73453;BME280;61687;56.232;43.854;2023-07-31T04:57:21;99602.25;;;18.30;74.86
73453;BME280;61687;56.232;43.854;2023-07-31T04:59:47;99593.91;;;18.30;74.76
73453;BME280;61687;56.232;43.854;2023-07-31T05:02:13;99598.88;;;18.23;74.94
73453;BME280;61687;56.232;43.854;2023-07-31T05:04:39;99611.78;;;18.29;75.31
73453;BME280;61687;56.232;43.854;2023-07-31T05:07:05;99609.16;;;18.39;74.34
73453;BME280;61687;56.232;43.854;2023-07-31T05:09:31;99616.50;;;18.45;74.28
73453;BME280;61687;56.232;43.854;2023-07-31T05:11:56;99614.16;;;18.44;74.29
73453;BME280;61687;56.232;43.854;2023-07-31T05:14:22;99623.72;;;18.43;74.22
73453;BME280;61687;56.232;43.854;2023-07-31T05:16:48;99620.66;;;18.24;74.92
73453;BME280;61687;56.232;43.854;2023-07-31T05:19:14;99610.91;;;18.33;74.71
73453;BME280;61687;56.232;43.854;2023-07-31T05:21:40;99623.56;;;18.34;74.85
73453;BME280;61687;56.232;43.854;2023-07-31T05:24:06;99621.59;;;18.47;74.76
73453;BME280;61687;56.232;43.854;2023-07-31T05:26:32;99623.47;;;18.37;74.79
73453;BME280;61687;56.232;43.854;2023-07-31T05:28:58;99626.66;;;18.36;74.61
73453;BME280;61687;56.232;43.854;2023-07-31T05:31:24;99619.22;;;18.33;75.06
73453;BME280;61687;56.232;43.854;2023-07-31T05:33:50;99626.47;;;18.13;75.79
73453;BME280;61687;56.232;43.854;2023-07-31T05:36:17;99632.78;;;18.14;76.09
73453;BME280;61687;56.232;43.854;2023-07-31T05:38:43;99626.22;;;18.08;76.23
73453;BME280;61687;56.232;43.854;2023-07-31T05:41:12;99621.72;;;17.97;76.87
73453;BME280;61687;56.232;43.854;2023-07-31T05:43:38;99627.97;;;18.01;77.05
73453;BME280;61687;56.232;43.854;2023-07-31T05:46:04;99634.47;;;18.11;76.86
73453;BME280;61687;56.232;43.854;2023-07-31T05:48:32;99633.66;;;18.11;76.82
73453;BME280;61687;56.232;43.854;2023-07-31T05:51:00;99630.56;;;18.09;76.40
73453;BME280;61687;56.232;43.854;2023-07-31T05:53:26;99634.88;;;17.93;77.35
73453;BME280;61687;56.232;43.854;2023-07-31T05:55:51;99633.16;;;17.83;77.30
73453;BME280;61687;56.232;43.854;2023-07-31T05:58:17;99631.09;;;17.54;79.17
73453;BME280;61687;56.232;43.854;2023-07-31T06:00:43;99638.53;;;17.57;79.28
73453;BME280;61687;56.232;43.854;2023-07-31T06:03:09;99639.75;;;17.72;78.77
73453;BME280;61687;56.232;43.854;2023-07-31T06:05:35;99631.59;;;17.82;78.30
73453;BME280;61687;56.232;43.854;2023-07-31T06:08:01;99638.81;;;17.63;78.82
73453;BME280;61687;56.232;43.854;2023-07-31T06:10:27;99629.78;;;17.75;78.78
73453;BME280;61687;56.232;43.854;2023-07-31T06:12:53;99642.75;;;17.95;78.13
73453;BME280;61687;56.232;43.854;2023-07-31T06:15:19;99646.91;;;18.20;77.13
73453;BME280;61687;56.232;43.854;2023-07-31T06:17:46;99652.00;;;18.38;76.72
73453;BME280;61687;56.232;43.854;2023-07-31T06:20:12;99645.69;;;18.50;76.39
73453;BME280;61687;56.232;43.854;2023-07-31T06:22:38;99649.72;;;18.33;76.32
73453;BME280;61687;56.232;43.854;2023-07-31T06:25:04;99663.25;;;18.30;76.71
73453;BME280;61687;56.232;43.854;2023-07-31T06:27:30;99662.22;;;18.41;76.77
73453;BME280;61687;56.232;43.854;2023-07-31T06:29:56;99662.97;;;18.41;76.51
73453;BME280;61687;56.232;43.854;2023-07-31T06:32:23;99665.50;;;18.36;76.94
73453;BME280;61687;56.232;43.854;2023-07-31T06:34:49;99667.16;;;18.33;76.62
73453;BME280;61687;56.232;43.854;2023-07-31T06:37:15;99665.63;;;18.32;76.65
73453;BME280;61687;56.232;43.854;2023-07-31T06:39:42;99664.00;;;18.18;77.26
73453;BME280;61687;56.232;43.854;2023-07-31T06:42:08;99673.25;;;18.28;77.08
73453;BME280;61687;56.232;43.854;2023-07-31T06:44:34;99672.97;;;18.39;77.02
73453;BME280;61687;56.232;43.854;2023-07-31T06:47:00;99679.63;;;18.41;76.74
73453;BME280;61687;56.232;43.854;2023-07-31T06:49:26;99673.25;;;18.28;77.08
73453;BME280;61687;56.232;43.854;2023-07-31T06:51:52;99669.50;;;18.35;77.00
73453;BME280;61687;56.232;43.854;2023-07-31T06:54:17;99676.41;;;18.43;76.76
73453;BME280;61687;56.232;43.854;2023-07-31T06:56:43;99678.75;;;18.44;76.52
73453;BME280;61687;56.232;43.854;2023-07-31T06:59:09;99686.97;;;18.48;76.87
73453;BME280;61687;56.232;43.854;2023-07-31T07:01:35;99697.41;;;18.27;77.63
73453;BME280;61687;56.232;43.854;2023-07-31T07:04:01;99696.75;;;18.23;78.04
73453;BME280;61687;56.232;43.854;2023-07-31T07:06:26;99704.34;;;18.36;77.26
73453;BME280;61687;56.232;43.854;2023-07-31T07:08:52;99696.22;;;18.28;77.51
73453;BME280;61687;56.232;43.854;2023-07-31T07:11:18;99705.38;;;18.42;77.27
73453;BME280;61687;56.232;43.854;2023-07-31T07:13:44;99706.75;;;18.50;77.21
73453;BME280;61687;56.232;43.854;2023-07-31T07:16:10;99707.13;;;18.65;77.09
73453;BME280;61687;56.232;43.854;2023-07-31T07:18:36;99714.31;;;18.79;76.29
73453;BME280;61687;56.232;43.854;2023-07-31T07:21:01;99704.75;;;18.80;76.01
73453;BME280;61687;56.232;43.854;2023-07-31T07:23:28;99715.75;;;18.84;75.67
73453;BME280;61687;56.232;43.854;2023-07-31T07:25:54;99722.22;;;18.94;75.31
73453;BME280;61687;56.232;43.854;2023-07-31T07:28:20;99713.00;;;18.97;75.78
73453;BME280;61687;56.232;43.854;2023-07-31T07:30:51;99714.63;;;19.11;75.36
73453;BME280;61687;56.232;43.854;2023-07-31T07:33:18;99719.97;;;19.18;75.07
73453;BME280;61687;56.232;43.854;2023-07-31T07:35:44;99715.56;;;19.47;74.63
73453;BME280;61687;56.232;43.854;2023-07-31T07:38:09;99715.56;;;19.98;73.49
73453;BME280;61687;56.232;43.854;2023-07-31T07:40:39;99719.47;;;20.49;71.59
73453;BME280;61687;56.232;43.854;2023-07-31T07:43:05;99718.03;;;20.67;69.76
73453;BME280;61687;56.232;43.854;2023-07-31T07:45:31;99718.66;;;20.84;69.23
73453;BME280;61687;56.232;43.854;2023-07-31T07:47:57;99716.63;;;20.84;68.97
73453;BME280;61687;56.232;43.854;2023-07-31T07:50:23;99724.19;;;20.62;69.37
73453;BME280;61687;56.232;43.854;2023-07-31T07:52:49;99721.13;;;20.69;69.58
73453;BME280;61687;56.232;43.854;2023-07-31T07:55:15;99728.94;;;20.74;68.92
73453;BME280;61687;56.232;43.854;2023-07-31T07:57:40;99732.94;;;20.73;69.44
73453;BME280;61687;56.232;43.854;2023-07-31T08:00:07;99728.34;;;20.44;69.21
73453;BME280;61687;56.232;43.854;2023-07-31T08:02:40;99727.91;;;20.45;68.60
73453;BME280;61687;56.232;43.854;2023-07-31T08:05:06;99730.72;;;20.68;68.62
73453;BME280;61687;56.232;43.854;2023-07-31T08:07:31;99733.31;;;20.62;68.35
73453;BME280;61687;56.232;43.854;2023-07-31T08:09:57;99737.38;;;20.48;68.83
73453;BME280;61687;56.232;43.854;2023-07-31T08:12:23;99744.72;;;20.77;68.32
73453;BME280;61687;56.232;43.854;2023-07-31T08:14:49;99746.50;;;21.28;66.55
73453;BME280;61687;56.232;43.854;2023-07-31T08:17:15;99741.94;;;21.44;65.63
73453;BME280;61687;56.232;43.854;2023-07-31T08:19:40;99753.41;;;21.24;64.86
73453;BME280;61687;56.232;43.854;2023-07-31T08:22:06;99748.97;;;21.04;65.42
73453;BME280;61687;56.232;43.854;2023-07-31T08:24:32;99745.53;;;21.00;66.03
73453;BME280;61687;56.232;43.854;2023-07-31T08:26:58;99756.34;;;20.63;67.07
73453;BME280;61687;56.232;43.854;2023-07-31T08:29:25;99748.75;;;20.98;66.31
73453;BME280;61687;56.232;43.854;2023-07-31T08:31:50;99761.16;;;21.51;64.71
73453;BME280;61687;56.232;43.854;2023-07-31T08:34:16;99746.31;;;21.95;63.83
73453;BME280;61687;56.232;43.854;2023-07-31T08:36:42;99754.09;;;22.10;62.68
73453;BME280;61687;56.232;43.854;2023-07-31T08:39:07;99750.34;;;21.94;63.15
73453;BME280;61687;56.232;43.854;2023-07-31T08:41:40;99774.50;;;21.56;64.03
73453;BME280;61687;56.232;43.854;2023-07-31T08:44:07;99753.63;;;21.61;63.83
73453;BME280;61687;56.232;43.854;2023-07-31T08:46:33;99764.41;;;21.81;62.93
73453;BME280;61687;56.232;43.854;2023-07-31T08:49:00;99772.34;;;21.92;62.20
73453;BME280;61687;56.232;43.854;2023-07-31T08:51:29;99756.66;;;21.85;61.99
73453;BME280;61687;56.232;43.854;2023-07-31T08:53:55;99769.84;;;21.85;62.19
73453;BME280;61687;56.232;43.854;2023-07-31T08:56:23;99771.78;;;22.07;61.53
73453;BME280;61687;56.232;43.854;2023-07-31T08:58:50;99783.91;;;22.22;61.15
73453;BME280;61687;56.232;43.854;2023-07-31T09:01:16;99779.59;;;22.30;60.83
73453;BME280;61687;56.232;43.854;2023-07-31T09:03:44;99772.19;;;22.55;60.86
73453;BME280;61687;56.232;43.854;2023-07-31T09:06:10;99775.91;;;22.43;60.00
73453;BME280;61687;56.232;43.854;2023-07-31T09:08:39;99780.13;;;22.57;59.56
73453;BME280;61687;56.232;43.854;2023-07-31T09:11:07;99781.34;;;22.84;58.85
73453;BME280;61687;56.232;43.854;2023-07-31T09:13:33;99784.78;;;22.79;58.98
73453;BME280;61687;56.232;43.854;2023-07-31T09:15:59;99788.22;;;22.73;58.48
73453;BME280;61687;56.232;43.854;2023-07-31T09:18:25;99784.44;;;23.05;58.65
73453;BME280;61687;56.232;43.854;2023-07-31T09:21:06;99786.78;;;23.25;57.15
73453;BME280;61687;56.232;43.854;2023-07-31T09:23:46;99780.91;;;23.04;57.59
73453;BME280;61687;56.232;43.854;2023-07-31T09:26:32;99787.88;;;22.99;57.13
73453;BME280;61687;56.232;43.854;2023-07-31T09:29:03;99789.09;;;23.36;57.35
73453;BME280;61687;56.232;43.854;2023-07-31T09:31:38;99786.00;;;23.77;56.65
73453;BME280;61687;56.232;43.854;2023-07-31T09:34:05;99790.56;;;23.98;55.62
73453;BME280;61687;56.232;43.854;2023-07-31T09:36:31;99793.00;;;23.81;55.16
73453;BME280;61687;56.232;43.854;2023-07-31T09:39:03;99795.72;;;23.57;55.20
73453;BME280;61687;56.232;43.854;2023-07-31T09:41:30;99805.13;;;23.78;55.45
73453;BME280;61687;56.232;43.854;2023-07-31T09:43:56;99810.03;;;23.40;54.75
73453;BME280;61687;56.232;43.854;2023-07-31T09:46:27;99799.16;;;23.52;54.39
73453;BME280;61687;56.232;43.854;2023-07-31T09:48:53;99799.75;;;23.56;54.01
73453;BME280;61687;56.232;43.854;2023-07-31T09:51:26;99798.81;;;23.59;53.91
73453;BME280;61687;56.232;43.854;2023-07-31T09:53:52;99801.38;;;23.29;54.63
73453;BME280;61687;56.232;43.854;2023-07-31T09:56:19;99793.44;;;23.37;55.42
73453;BME280;61687;56.232;43.854;2023-07-31T09:58:47;99799.97;;;22.87;54.95
73453;BME280;61687;56.232;43.854;2023-07-31T10:01:13;99802.31;;;23.07;55.19
73453;BME280;61687;56.232;43.854;2023-07-31T10:03:40;99807.53;;;23.52;54.92
73453;BME280;61687;56.232;43.854;2023-07-31T10:06:08;99808.09;;;23.75;54.05
73453;BME280;61687;56.232;43.854;2023-07-31T10:08:36;99803.84;;;23.36;54.07
73453;BME280;61687;56.232;43.854;2023-07-31T10:11:02;99798.59;;;23.10;55.56
73453;BME280;61687;56.232;43.854;2023-07-31T10:13:30;99809.47;;;23.27;55.33
73453;BME280;61687;56.232;43.854;2023-07-31T10:16:00;99808.19;;;23.47;55.41
73453;BME280;61687;56.232;43.854;2023-07-31T10:18:28;99808.84;;;23.84;54.69
73453;BME280;61687;56.232;43.854;2023-07-31T10:20:55;99812.09;;;23.83;53.35
73453;BME280;61687;56.232;43.854;2023-07-31T10:23:23;99810.78;;;23.50;53.31
73453;BME280;61687;56.232;43.854;2023-07-31T10:25:50;99820.03;;;23.04;53.95
73453;BME280;61687;56.232;43.854;2023-07-31T10:28:18;99807.69;;;23.48;53.86
73453;BME280;61687;56.232;43.854;2023-07-31T10:30:44;99810.38;;;23.85;53.40
73453;BME280;61687;56.232;43.854;2023-07-31T10:33:10;99814.63;;;24.14;52.72
73453;BME280;61687;56.232;43.854;2023-07-31T10:35:36;99828.81;;;24.11;51.96
73453;BME280;61687;56.232;43.854;2023-07-31T10:38:12;99810.88;;;23.75;53.11
73453;BME280;61687;56.232;43.854;2023-07-31T10:40:38;99824.84;;;23.84;52.56
73453;BME280;61687;56.232;43.854;2023-07-31T10:43:05;99818.94;;;24.25;52.57
73453;BME280;61687;56.232;43.854;2023-07-31T10:45:36;99824.03;;;24.26;51.25
73453;BME280;61687;56.232;43.854;2023-07-31T10:48:04;99815.25;;;24.67;51.06
73453;BME280;61687;56.232;43.854;2023-07-31T10:50:32;99827.09;;;24.86;49.76
73453;BME280;61687;56.232;43.854;2023-07-31T10:52:59;99827.47;;;25.19;48.78
73453;BME280;61687;56.232;43.854;2023-07-31T10:57:55;99829.88;;;25.41;48.71
73453;BME280;61687;56.232;43.854;2023-07-31T11:00:29;99827.34;;;24.98;49.23
73453;BME280;61687;56.232;43.854;2023-07-31T11:03:06;99831.88;;;25.10;49.38
73453;BME280;61687;56.232;43.854;2023-07-31T11:05:53;99836.31;;;25.02;47.54
73453;BME280;61687;56.232;43.854;2023-07-31T11:08:29;99833.13;;;25.09;48.17
73453;BME280;61687;56.232;43.854;2023-07-31T11:15:54;99850.53;;;24.74;48.92
73453;BME280;61687;56.232;43.854;2023-07-31T11:18:20;99848.06;;;24.67;48.77
73453;BME280;61687;56.232;43.854;2023-07-31T11:20:46;99890.88;;;24.43;48.50
73453;BME280;61687;56.232;43.854;2023-07-31T11:23:12;99858.56;;;23.90;49.19
73453;BME280;61687;56.232;43.854;2023-07-31T11:25:39;99857.06;;;24.22;48.98
73453;BME280;61687;56.232;43.854;2023-07-31T11:28:13;99856.00;;;24.20;49.09
73453;BME280;61687;56.232;43.854;2023-07-31T11:30:40;99863.72;;;24.83;48.45
73453;BME280;61687;56.232;43.854;2023-07-31T11:33:08;99858.59;;;25.21;47.59
73453;BME280;61687;56.232;43.854;2023-07-31T11:35:40;99862.50;;;25.38;47.23
73453;BME280;61687;56.232;43.854;2023-07-31T11:38:07;99850.22;;;25.51;46.24
73453;BME280;61687;56.232;43.854;2023-07-31T11:40:42;99853.41;;;25.74;46.19
73453;BME280;61687;56.232;43.854;2023-07-31T11:43:08;99854.06;;;26.13;46.25
73453;BME280;61687;56.232;43.854;2023-07-31T11:45:33;99856.22;;;26.39;45.48
73453;BME280;61687;56.232;43.854;2023-07-31T11:48:01;99862.59;;;26.96;43.16
73453;BME280;61687;56.232;43.854;2023-07-31T11:50:27;99853.63;;;27.19;43.53
73453;BME280;61687;56.232;43.854;2023-07-31T11:53:00;99861.31;;;28.41;41.84
73453;BME280;61687;56.232;43.854;2023-07-31T11:55:26;99873.19;;;28.19;40.53
73453;BME280;61687;56.232;43.854;2023-07-31T11:57:54;99856.16;;;27.43;42.85
73453;BME280;61687;56.232;43.854;2023-07-31T12:00:21;99859.19;;;27.13;43.29
73453;BME280;61687;56.232;43.854;2023-07-31T12:02:47;99904.75;;;26.40;44.18
73453;BME280;61687;56.232;43.854;2023-07-31T12:05:13;99859.31;;;25.91;44.84
73453;BME280;61687;56.232;43.854;2023-07-31T12:08:09;99862.78;;;25.40;46.42
73453;BME280;61687;56.232;43.854;2023-07-31T12:10:36;99864.81;;;25.00;47.26
73453;BME280;61687;56.232;43.854;2023-07-31T12:13:07;99866.13;;;25.14;47.82
73453;BME280;61687;56.232;43.854;2023-07-31T12:18:03;99877.97;;;25.34;47.39
73453;BME280;61687;56.232;43.854;2023-07-31T12:20:30;99866.94;;;24.66;48.20
73453;BME280;61687;56.232;43.854;2023-07-31T12:22:56;99869.59;;;24.61;48.65
73453;BME280;61687;56.232;43.854;2023-07-31T12:25:31;99870.78;;;24.78;49.21
73453;BME280;61687;56.232;43.854;2023-07-31T12:27:58;99879.09;;;24.88;48.52
73453;BME280;61687;56.232;43.854;2023-07-31T12:30:35;99876.09;;;24.67;49.07
73453;BME280;61687;56.232;43.854;2023-07-31T12:33:13;99877.59;;;24.53;49.24
73453;BME280;61687;56.232;43.854;2023-07-31T12:35:41;99886.13;;;24.58;49.26
73453;BME280;61687;56.232;43.854;2023-07-31T12:38:08;99881.28;;;24.59;50.23
73453;BME280;61687;56.232;43.854;2023-07-31T12:40:37;99886.44;;;24.85;49.28
73453;BME280;61687;56.232;43.854;2023-07-31T12:43:03;99885.53;;;24.54;49.66
73453;BME280;61687;56.232;43.854;2023-07-31T12:45:30;99878.06;;;24.51;50.19
73453;BME280;61687;56.232;43.854;2023-07-31T12:47:57;99886.78;;;25.41;49.06
73453;BME280;61687;56.232;43.854;2023-07-31T12:50:23;99895.13;;;27.03;45.10
73453;BME280;61687;56.232;43.854;2023-07-31T12:52:49;99877.63;;;27.99;42.65
73453;BME280;61687;56.232;43.854;2023-07-31T12:55:15;99884.38;;;28.45;41.89
73453;BME280;61687;56.232;43.854;2023-07-31T12:57:41;99888.91;;;28.31;41.69
73453;BME280;61687;56.232;43.854;2023-07-31T13:00:08;99885.03;;;28.28;42.30
73453;BME280;61687;56.232;43.854;2023-07-31T13:02:33;99891.28;;;28.88;41.60
73453;BME280;61687;56.232;43.854;2023-07-31T13:04:59;99884.38;;;28.94;40.88